sensor_id;sensor_type;location;lat;lon;timestamp;P1;durP1;ratioP1;P2;durP2;ratioP2
16669;SDS011;8448;52.034;5.158;2024-01-10T00:01:34;6.03;;;3.20;;
16669;SDS011;8448;52.034;5.158;2024-01-10T00:04:03;5.17;;;2.90;;
16669;SDS011;8448;52.034;5.158;2024-01-10T00:06:33;7.07;;;2.90;;
16669;SDS011;8448;52.034;5.158;2024-01-10T00:09:02;6.43;;;3.10;;
16669;SDS011;8448;52.034;5.158;2024-01-10T00:11:29;6.33;;;3.00;;
16669;SDS011;8448;52.034;5.158;2024-01-10T00:13:57;7.37;;;3.37;;
16669;SDS011;8448;52.034;5.158;2024-01-10T00:16:25;6.47;;;2.90;;
16669;SDS011;8448;52.034;5.158;2024-01-10T00:18:52;5.63;;;2.93;;
16669;SDS011;8448;52.034;5.158;2024-01-10T00:21:19;6.37;;;3.20;;
16669;SDS011;8448;52.034;5.158;2024-01-10T00:23:48;6.33;;;2.70;;
16669;SDS011;8448;52.034;5.158;2024-01-10T00:26:16;5.13;;;3.23;;
16669;SDS011;8448;52.034;5.158;2024-01-10T00:28:43;5.40;;;2.80;;
16669;SDS011;8448;52.034;5.158;2024-01-10T00:31:11;9.10;;;3.10;;
16669;SDS011;8448;52.034;5.158;2024-01-10T00:33:38;4.87;;;3.00;;
16669;SDS011;8448;52.034;5.158;2024-01-10T00:36:06;8.73;;;3.20;;
16669;SDS011;8448;52.034;5.158;2024-01-10T00:38:33;6.07;;;3.10;;
16669;SDS011;8448;52.034;5.158;2024-01-10T00:41:02;6.53;;;3.00;;
16669;SDS011;8448;52.034;5.158;2024-01-10T00:43:29;6.90;;;3.20;;
16669;SDS011;8448;52.034;5.158;2024-01-10T00:45:57;7.30;;;3.17;;
16669;SDS011;8448;52.034;5.158;2024-01-10T00:48:24;5.90;;;2.90;;
16669;SDS011;8448;52.034;5.158;2024-01-10T00:50:51;8.10;;;3.20;;
16669;SDS011;8448;52.034;5.158;2024-01-10T00:53:19;5.00;;;2.80;;
16669;SDS011;8448;52.034;5.158;2024-01-10T00:55:46;5.33;;;3.00;;
16669;SDS011;8448;52.034;5.158;2024-01-10T00:58:15;5.83;;;3.33;;
16669;SDS011;8448;52.034;5.158;2024-01-10T01:00:42;5.13;;;2.90;;
16669;SDS011;8448;52.034;5.158;2024-01-10T01:03:10;4.87;;;3.00;;
16669;SDS011;8448;52.034;5.158;2024-01-10T01:05:37;5.93;;;3.27;;
16669;SDS011;8448;52.034;5.158;2024-01-10T01:08:05;5.57;;;2.80;;
16669;SDS011;8448;52.034;5.158;2024-01-10T01:10:33;5.70;;;3.30;;
16669;SDS011;8448;52.034;5.158;2024-01-10T01:13:01;5.67;;;2.83;;
16669;SDS011;8448;52.034;5.158;2024-01-10T01:15:29;6.77;;;3.20;;
16669;SDS011;8448;52.034;5.158;2024-01-10T01:17:57;6.17;;;3.07;;
16669;SDS011;8448;52.034;5.158;2024-01-10T01:20:24;9.03;;;3.20;;
16669;SDS011;8448;52.034;5.158;2024-01-10T01:22:52;6.93;;;3.17;;
16669;SDS011;8448;52.034;5.158;2024-01-10T01:25:19;7.03;;;3.30;;
16669;SDS011;8448;52.034;5.158;2024-01-10T01:27:46;5.50;;;3.27;;
16669;SDS011;8448;52.034;5.158;2024-01-10T01:30:14;8.57;;;4.03;;
16669;SDS011;8448;52.034;5.158;2024-01-10T01:32:43;5.93;;;3.27;;
16669;SDS011;8448;52.034;5.158;2024-01-10T01:35:10;6.03;;;3.30;;
16669;SDS011;8448;52.034;5.158;2024-01-10T01:37:37;8.17;;;3.27;;
16669;SDS011;8448;52.034;5.158;2024-01-10T01:40:05;6.90;;;3.40;;
16669;SDS011;8448;52.034;5.158;2024-01-10T01:42:33;8.70;;;3.10;;
16669;SDS011;8448;52.034;5.158;2024-01-10T01:45:01;6.13;;;3.17;;
16669;SDS011;8448;52.034;5.158;2024-01-10T01:47:28;7.30;;;3.70;;
16669;SDS011;8448;52.034;5.158;2024-01-10T01:49:56;6.60;;;3.37;;
16669;SDS011;8448;52.034;5.158;2024-01-10T01:52:23;5.90;;;3.23;;
16669;SDS011;8448;52.034;5.158;2024-01-10T01:54:51;7.07;;;3.47;;
16669;SDS011;8448;52.034;5.158;2024-01-10T01:57:19;6.03;;;3.27;;
16669;SDS011;8448;52.034;5.158;2024-01-10T01:59:46;5.83;;;3.10;;
16669;SDS011;8448;52.034;5.158;2024-01-10T02:02:14;6.40;;;3.00;;
16669;SDS011;8448;52.034;5.158;2024-01-10T02:04:42;6.03;;;3.43;;
16669;SDS011;8448;52.034;5.158;2024-01-10T02:07:11;6.43;;;3.40;;
16669;SDS011;8448;52.034;5.158;2024-01-10T02:09:38;6.70;;;3.07;;
16669;SDS011;8448;52.034;5.158;2024-01-10T02:12:06;6.67;;;3.37;;
16669;SDS011;8448;52.034;5.158;2024-01-10T02:14:33;5.97;;;3.20;;
16669;SDS011;8448;52.034;5.158;2024-01-10T02:17:01;6.63;;;3.40;;
16669;SDS011;8448;52.034;5.158;2024-01-10T02:19:28;6.57;;;3.67;;
16669;SDS011;8448;52.034;5.158;2024-01-10T02:21:57;6.60;;;3.73;;
16669;SDS011;8448;52.034;5.158;2024-01-10T02:24:26;6.43;;;3.20;;
16669;SDS011;8448;52.034;5.158;2024-01-10T02:26:54;7.83;;;3.60;;
16669;SDS011;8448;52.034;5.158;2024-01-10T02:29:22;6.13;;;3.27;;
16669;SDS011;8448;52.034;5.158;2024-01-10T02:31:50;7.00;;;3.60;;
16669;SDS011;8448;52.034;5.158;2024-01-10T02:34:17;7.77;;;3.80;;
16669;SDS011;8448;52.034;5.158;2024-01-10T02:36:44;6.40;;;3.20;;
16669;SDS011;8448;52.034;5.158;2024-01-10T02:39:12;7.13;;;3.73;;
16669;SDS011;8448;52.034;5.158;2024-01-10T02:41:39;7.53;;;3.50;;
16669;SDS011;8448;52.034;5.158;2024-01-10T02:44:08;5.90;;;3.17;;
16669;SDS011;8448;52.034;5.158;2024-01-10T02:46:35;6.03;;;3.40;;
16669;SDS011;8448;52.034;5.158;2024-01-10T02:49:02;6.63;;;3.43;;
16669;SDS011;8448;52.034;5.158;2024-01-10T02:51:31;6.70;;;3.60;;
16669;SDS011;8448;52.034;5.158;2024-01-10T02:53:58;6.90;;;3.30;;
16669;SDS011;8448;52.034;5.158;2024-01-10T02:56:25;6.10;;;3.33;;
16669;SDS011;8448;52.034;5.158;2024-01-10T02:58:53;7.13;;;3.73;;
16669;SDS011;8448;52.034;5.158;2024-01-10T03:01:21;9.47;;;3.73;;
16669;SDS011;8448;52.034;5.158;2024-01-10T03:03:49;7.00;;;3.77;;
16669;SDS011;8448;52.034;5.158;2024-01-10T03:06:16;8.57;;;3.57;;
16669;SDS011;8448;52.034;5.158;2024-01-10T03:08:43;6.10;;;3.20;;
16669;SDS011;8448;52.034;5.158;2024-01-10T03:11:11;7.47;;;3.80;;
16669;SDS011;8448;52.034;5.158;2024-01-10T03:13:38;9.20;;;4.00;;
16669;SDS011;8448;52.034;5.158;2024-01-10T03:16:06;6.60;;;3.37;;
16669;SDS011;8448;52.034;5.158;2024-01-10T03:18:34;6.83;;;3.77;;
16669;SDS011;8448;52.034;5.158;2024-01-10T03:21:02;6.97;;;3.87;;
16669;SDS011;8448;52.034;5.158;2024-01-10T03:23:29;8.17;;;3.60;;
16669;SDS011;8448;52.034;5.158;2024-01-10T03:25:57;6.80;;;3.90;;
16669;SDS011;8448;52.034;5.158;2024-01-10T03:28:24;8.80;;;4.10;;
16669;SDS011;8448;52.034;5.158;2024-01-10T03:30:51;8.43;;;3.80;;
16669;SDS011;8448;52.034;5.158;2024-01-10T03:33:19;7.90;;;3.90;;
16669;SDS011;8448;52.034;5.158;2024-01-10T03:35:48;9.00;;;4.43;;
16669;SDS011;8448;52.034;5.158;2024-01-10T03:38:15;7.37;;;3.83;;
16669;SDS011;8448;52.034;5.158;2024-01-10T03:40:42;9.37;;;4.00;;
16669;SDS011;8448;52.034;5.158;2024-01-10T03:43:10;6.77;;;3.83;;
16669;SDS011;8448;52.034;5.158;2024-01-10T03:45:37;7.00;;;3.73;;
16669;SDS011;8448;52.034;5.158;2024-01-10T03:48:05;8.83;;;3.83;;
16669;SDS011;8448;52.034;5.158;2024-01-10T03:50:33;8.53;;;4.13;;
16669;SDS011;8448;52.034;5.158;2024-01-10T03:53:02;9.17;;;4.30;;
16669;SDS011;8448;52.034;5.158;2024-01-10T03:55:30;8.43;;;4.17;;
16669;SDS011;8448;52.034;5.158;2024-01-10T03:57:57;7.57;;;3.70;;
16669;SDS011;8448;52.034;5.158;2024-01-10T04:00:25;6.57;;;3.50;;
16669;SDS011;8448;52.034;5.158;2024-01-10T04:02:52;7.83;;;4.03;;
16669;SDS011;8448;52.034;5.158;2024-01-10T04:05:20;7.03;;;3.80;;
16669;SDS011;8448;52.034;5.158;2024-01-10T04:07:49;8.07;;;4.53;;
16669;SDS011;8448;52.034;5.158;2024-01-10T04:10:18;7.47;;;3.50;;
16669;SDS011;8448;52.034;5.158;2024-01-10T04:12:46;8.77;;;3.97;;
16669;SDS011;8448;52.034;5.158;2024-01-10T04:15:13;7.03;;;3.87;;
16669;SDS011;8448;52.034;5.158;2024-01-10T04:17:41;7.10;;;4.13;;
16669;SDS011;8448;52.034;5.158;2024-01-10T04:20:08;7.40;;;4.13;;
16669;SDS011;8448;52.034;5.158;2024-01-10T04:22:36;7.70;;;4.30;;
16669;SDS011;8448;52.034;5.158;2024-01-10T04:25:05;7.63;;;3.70;;
16669;SDS011;8448;52.034;5.158;2024-01-10T04:27:34;8.63;;;4.20;;
16669;SDS011;8448;52.034;5.158;2024-01-10T04:30:02;8.57;;;4.27;;
16669;SDS011;8448;52.034;5.158;2024-01-10T04:32:30;8.43;;;4.03;;
16669;SDS011;8448;52.034;5.158;2024-01-10T04:34:58;8.47;;;3.90;;
16669;SDS011;8448;52.034;5.158;2024-01-10T04:37:25;8.67;;;4.20;;
16669;SDS011;8448;52.034;5.158;2024-01-10T04:39:52;8.27;;;3.93;;
16669;SDS011;8448;52.034;5.158;2024-01-10T04:42:20;8.33;;;4.13;;
16669;SDS011;8448;52.034;5.158;2024-01-10T04:44:48;9.43;;;4.53;;
16669;SDS011;8448;52.034;5.158;2024-01-10T04:47:16;8.47;;;4.50;;
16669;SDS011;8448;52.034;5.158;2024-01-10T04:49:43;9.27;;;4.37;;
16669;SDS011;8448;52.034;5.158;2024-01-10T04:52:10;7.57;;;4.20;;
16669;SDS011;8448;52.034;5.158;2024-01-10T04:54:38;7.33;;;4.00;;
16669;SDS011;8448;52.034;5.158;2024-01-10T04:57:05;11.17;;;4.80;;
16669;SDS011;8448;52.034;5.158;2024-01-10T04:59:33;7.90;;;4.47;;
16669;SDS011;8448;52.034;5.158;2024-01-10T05:02:02;7.60;;;3.87;;
16669;SDS011;8448;52.034;5.158;2024-01-10T05:04:30;10.53;;;4.57;;
16669;SDS011;8448;52.034;5.158;2024-01-10T05:06:57;8.40;;;4.33;;
16669;SDS011;8448;52.034;5.158;2024-01-10T05:09:24;6.97;;;3.87;;
16669;SDS011;8448;52.034;5.158;2024-01-10T05:11:52;8.53;;;4.00;;
16669;SDS011;8448;52.034;5.158;2024-01-10T05:14:19;9.23;;;4.53;;
16669;SDS011;8448;52.034;5.158;2024-01-10T05:16:47;8.87;;;4.60;;
16669;SDS011;8448;52.034;5.158;2024-01-10T05:19:16;8.33;;;4.00;;
16669;SDS011;8448;52.034;5.158;2024-01-10T05:21:43;7.83;;;4.23;;
16669;SDS011;8448;52.034;5.158;2024-01-10T05:24:10;8.27;;;3.97;;
16669;SDS011;8448;52.034;5.158;2024-01-10T05:26:38;9.53;;;4.10;;
16669;SDS011;8448;52.034;5.158;2024-01-10T05:29:06;7.93;;;4.27;;
16669;SDS011;8448;52.034;5.158;2024-01-10T05:31:33;7.27;;;3.83;;
16669;SDS011;8448;52.034;5.158;2024-01-10T05:34:01;10.63;;;4.43;;
16669;SDS011;8448;52.034;5.158;2024-01-10T05:36:31;8.87;;;4.53;;
16669;SDS011;8448;52.034;5.158;2024-01-10T05:38:59;8.17;;;4.17;;
16669;SDS011;8448;52.034;5.158;2024-01-10T05:41:27;7.47;;;4.10;;
16669;SDS011;8448;52.034;5.158;2024-01-10T05:43:54;11.57;;;4.27;;
16669;SDS011;8448;52.034;5.158;2024-01-10T05:46:22;8.17;;;4.10;;
16669;SDS011;8448;52.034;5.158;2024-01-10T05:48:49;9.97;;;4.63;;
16669;SDS011;8448;52.034;5.158;2024-01-10T05:51:16;10.13;;;4.57;;
16669;SDS011;8448;52.034;5.158;2024-01-10T05:53:45;9.43;;;5.68;;
16669;SDS011;8448;52.034;5.158;2024-01-10T05:56:12;8.83;;;4.80;;
16669;SDS011;8448;52.034;5.158;2024-01-10T05:58:40;8.47;;;4.33;;
16669;SDS011;8448;52.034;5.158;2024-01-10T06:01:07;9.27;;;4.53;;
16669;SDS011;8448;52.034;5.158;2024-01-10T06:03:35;8.87;;;4.50;;
16669;SDS011;8448;52.034;5.158;2024-01-10T06:06:03;8.23;;;4.50;;
16669;SDS011;8448;52.034;5.158;2024-01-10T06:08:31;8.60;;;4.30;;
16669;SDS011;8448;52.034;5.158;2024-01-10T06:11:00;7.93;;;3.97;;
16669;SDS011;8448;52.034;5.158;2024-01-10T06:13:31;10.47;;;4.70;;
16669;SDS011;8448;52.034;5.158;2024-01-10T06:15:58;9.07;;;4.80;;
16669;SDS011;8448;52.034;5.158;2024-01-10T06:18:25;9.37;;;4.63;;
16669;SDS011;8448;52.034;5.158;2024-01-10T06:20:52;8.90;;;4.20;;
16669;SDS011;8448;52.034;5.158;2024-01-10T06:23:20;9.83;;;4.73;;
16669;SDS011;8448;52.034;5.158;2024-01-10T06:25:47;9.90;;;4.70;;
16669;SDS011;8448;52.034;5.158;2024-01-10T06:28:16;9.13;;;4.23;;
16669;SDS011;8448;52.034;5.158;2024-01-10T06:30:43;8.98;;;5.40;;
16669;SDS011;8448;52.034;5.158;2024-01-10T06:33:10;8.40;;;4.90;;
16669;SDS011;8448;52.034;5.158;2024-01-10T06:35:39;9.60;;;4.60;;
16669;SDS011;8448;52.034;5.158;2024-01-10T06:38:08;9.93;;;5.10;;
16669;SDS011;8448;52.034;5.158;2024-01-10T06:40:35;11.23;;;5.10;;
16669;SDS011;8448;52.034;5.158;2024-01-10T06:43:03;8.93;;;4.83;;
16669;SDS011;8448;52.034;5.158;2024-01-10T06:45:34;8.43;;;5.00;;
16669;SDS011;8448;52.034;5.158;2024-01-10T06:48:02;10.00;;;5.13;;
16669;SDS011;8448;52.034;5.158;2024-01-10T06:50:30;8.80;;;4.83;;
16669;SDS011;8448;52.034;5.158;2024-01-10T06:52:57;9.17;;;4.73;;
16669;SDS011;8448;52.034;5.158;2024-01-10T06:55:24;10.47;;;5.07;;
16669;SDS011;8448;52.034;5.158;2024-01-10T06:57:52;9.33;;;4.60;;
16669;SDS011;8448;52.034;5.158;2024-01-10T07:00:19;10.90;;;5.23;;
16669;SDS011;8448;52.034;5.158;2024-01-10T07:02:48;9.73;;;4.83;;
16669;SDS011;8448;52.034;5.158;2024-01-10T07:05:15;9.07;;;4.70;;
16669;SDS011;8448;52.034;5.158;2024-01-10T07:07:43;9.13;;;5.10;;
16669;SDS011;8448;52.034;5.158;2024-01-10T07:10:10;10.50;;;5.50;;
16669;SDS011;8448;52.034;5.158;2024-01-10T07:12:37;9.65;;;5.05;;
16669;SDS011;8448;52.034;5.158;2024-01-10T07:15:06;10.13;;;5.23;;
16669;SDS011;8448;52.034;5.158;2024-01-10T07:17:34;11.13;;;5.17;;
16669;SDS011;8448;52.034;5.158;2024-01-10T07:20:03;8.63;;;4.93;;
16669;SDS011;8448;52.034;5.158;2024-01-10T07:22:32;10.80;;;5.40;;
16669;SDS011;8448;52.034;5.158;2024-01-10T07:25:00;11.47;;;5.83;;
16669;SDS011;8448;52.034;5.158;2024-01-10T07:27:27;11.05;;;6.60;;
16669;SDS011;8448;52.034;5.158;2024-01-10T07:29:55;10.13;;;5.53;;
16669;SDS011;8448;52.034;5.158;2024-01-10T07:32:22;10.10;;;5.50;;
16669;SDS011;8448;52.034;5.158;2024-01-10T07:34:50;19.83;;;6.28;;
16669;SDS011;8448;52.034;5.158;2024-01-10T07:37:19;12.33;;;5.50;;
16669;SDS011;8448;52.034;5.158;2024-01-10T07:39:47;11.40;;;5.80;;
16669;SDS011;8448;52.034;5.158;2024-01-10T07:42:15;13.17;;;5.90;;
16669;SDS011;8448;52.034;5.158;2024-01-10T07:44:43;11.67;;;5.47;;
16669;SDS011;8448;52.034;5.158;2024-01-10T07:47:11;9.87;;;5.00;;
16669;SDS011;8448;52.034;5.158;2024-01-10T07:49:38;12.17;;;5.50;;
16669;SDS011;8448;52.034;5.158;2024-01-10T07:52:06;10.40;;;4.93;;
16669;SDS011;8448;52.034;5.158;2024-01-10T07:54:34;11.33;;;5.60;;
16669;SDS011;8448;52.034;5.158;2024-01-10T07:57:02;10.80;;;5.23;;
16669;SDS011;8448;52.034;5.158;2024-01-10T07:59:31;11.37;;;5.60;;
16669;SDS011;8448;52.034;5.158;2024-01-10T08:01:59;14.07;;;5.60;;
16669;SDS011;8448;52.034;5.158;2024-01-10T08:04:27;12.67;;;6.13;;
16669;SDS011;8448;52.034;5.158;2024-01-10T08:06:55;11.30;;;5.50;;
16669;SDS011;8448;52.034;5.158;2024-01-10T08:09:22;9.90;;;5.10;;
16669;SDS011;8448;52.034;5.158;2024-01-10T08:11:51;12.47;;;5.53;;
16669;SDS011;8448;52.034;5.158;2024-01-10T08:14:18;9.93;;;5.23;;
16669;SDS011;8448;52.034;5.158;2024-01-10T08:16:46;11.17;;;5.83;;
16669;SDS011;8448;52.034;5.158;2024-01-10T08:19:13;10.90;;;5.50;;
16669;SDS011;8448;52.034;5.158;2024-01-10T08:21:41;10.27;;;4.93;;
16669;SDS011;8448;52.034;5.158;2024-01-10T08:24:08;10.53;;;5.23;;
16669;SDS011;8448;52.034;5.158;2024-01-10T08:26:35;10.33;;;5.00;;
16669;SDS011;8448;52.034;5.158;2024-01-10T08:29:05;10.50;;;5.40;;
16669;SDS011;8448;52.034;5.158;2024-01-10T08:31:32;11.33;;;5.53;;
16669;SDS011;8448;52.034;5.158;2024-01-10T08:33:59;10.67;;;5.60;;
16669;SDS011;8448;52.034;5.158;2024-01-10T08:36:28;10.03;;;5.20;;
16669;SDS011;8448;52.034;5.158;2024-01-10T08:38:55;13.43;;;6.20;;
16669;SDS011;8448;52.034;5.158;2024-01-10T08:41:22;9.70;;;5.20;;
16669;SDS011;8448;52.034;5.158;2024-01-10T08:43:50;9.23;;;5.10;;
16669;SDS011;8448;52.034;5.158;2024-01-10T08:46:19;9.90;;;4.87;;
16669;SDS011;8448;52.034;5.158;2024-01-10T08:48:47;11.27;;;5.50;;
16669;SDS011;8448;52.034;5.158;2024-01-10T08:51:14;11.33;;;5.93;;
16669;SDS011;8448;52.034;5.158;2024-01-10T08:53:42;11.33;;;5.30;;
16669;SDS011;8448;52.034;5.158;2024-01-10T08:56:09;11.53;;;5.50;;
16669;SDS011;8448;52.034;5.158;2024-01-10T08:58:38;11.97;;;5.23;;
16669;SDS011;8448;52.034;5.158;2024-01-10T09:01:05;11.07;;;5.30;;
16669;SDS011;8448;52.034;5.158;2024-01-10T09:03:35;10.40;;;5.30;;
16669;SDS011;8448;52.034;5.158;2024-01-10T09:06:02;10.17;;;5.53;;
16669;SDS011;8448;52.034;5.158;2024-01-10T09:08:33;12.43;;;5.67;;
16669;SDS011;8448;52.034;5.158;2024-01-10T09:11:00;10.77;;;4.97;;
16669;SDS011;8448;52.034;5.158;2024-01-10T09:13:28;12.97;;;5.50;;
16669;SDS011;8448;52.034;5.158;2024-01-10T09:15:56;11.10;;;5.40;;
16669;SDS011;8448;52.034;5.158;2024-01-10T09:18:24;12.13;;;5.63;;
16669;SDS011;8448;52.034;5.158;2024-01-10T09:20:54;12.87;;;5.97;;
16669;SDS011;8448;52.034;5.158;2024-01-10T09:23:22;12.87;;;5.60;;
16669;SDS011;8448;52.034;5.158;2024-01-10T09:25:49;11.60;;;5.07;;
16669;SDS011;8448;52.034;5.158;2024-01-10T09:28:18;12.40;;;5.80;;
16669;SDS011;8448;52.034;5.158;2024-01-10T09:30:46;10.73;;;5.30;;
16669;SDS011;8448;52.034;5.158;2024-01-10T09:33:14;9.83;;;5.60;;
16669;SDS011;8448;52.034;5.158;2024-01-10T09:35:42;12.13;;;5.77;;
16669;SDS011;8448;52.034;5.158;2024-01-10T09:38:11;9.93;;;5.40;;
16669;SDS011;8448;52.034;5.158;2024-01-10T09:40:39;10.03;;;5.53;;
16669;SDS011;8448;52.034;5.158;2024-01-10T09:43:08;11.93;;;5.33;;
16669;SDS011;8448;52.034;5.158;2024-01-10T09:45:36;10.97;;;5.47;;
16669;SDS011;8448;52.034;5.158;2024-01-10T09:48:11;9.87;;;5.47;;
16669;SDS011;8448;52.034;5.158;2024-01-10T09:50:41;9.87;;;5.20;;
16669;SDS011;8448;52.034;5.158;2024-01-10T09:53:12;12.40;;;5.73;;
16669;SDS011;8448;52.034;5.158;2024-01-10T09:55:43;11.87;;;5.80;;
16669;SDS011;8448;52.034;5.158;2024-01-10T09:58:12;10.90;;;6.07;;
16669;SDS011;8448;52.034;5.158;2024-01-10T10:00:40;10.70;;;5.47;;
16669;SDS011;8448;52.034;5.158;2024-01-10T10:03:08;10.33;;;5.77;;
16669;SDS011;8448;52.034;5.158;2024-01-10T10:05:38;9.00;;;5.60;;
16669;SDS011;8448;52.034;5.158;2024-01-10T10:08:07;9.83;;;5.73;;
16669;SDS011;8448;52.034;5.158;2024-01-10T10:10:39;11.43;;;5.63;;
16669;SDS011;8448;52.034;5.158;2024-01-10T10:13:10;10.70;;;5.73;;
16669;SDS011;8448;52.034;5.158;2024-01-10T10:15:42;9.57;;;5.57;;
16669;SDS011;8448;52.034;5.158;2024-01-10T10:18:13;10.60;;;5.90;;
16669;SDS011;8448;52.034;5.158;2024-01-10T10:20:41;10.80;;;5.53;;
16669;SDS011;8448;52.034;5.158;2024-01-10T10:23:08;10.43;;;5.63;;
16669;SDS011;8448;52.034;5.158;2024-01-10T10:25:41;11.03;;;6.03;;
16669;SDS011;8448;52.034;5.158;2024-01-10T10:28:12;10.77;;;5.60;;
16669;SDS011;8448;52.034;5.158;2024-01-10T10:30:40;10.33;;;5.60;;
16669;SDS011;8448;52.034;5.158;2024-01-10T10:33:07;12.13;;;5.77;;
16669;SDS011;8448;52.034;5.158;2024-01-10T10:35:35;11.90;;;6.03;;
16669;SDS011;8448;52.034;5.158;2024-01-10T10:38:03;11.17;;;6.23;;
16669;SDS011;8448;52.034;5.158;2024-01-10T10:40:33;11.87;;;5.90;;
16669;SDS011;8448;52.034;5.158;2024-01-10T10:43:03;11.40;;;6.00;;
16669;SDS011;8448;52.034;5.158;2024-01-10T10:45:32;12.00;;;6.03;;
16669;SDS011;8448;52.034;5.158;2024-01-10T10:48:00;11.33;;;6.33;;
16669;SDS011;8448;52.034;5.158;2024-01-10T10:50:30;11.67;;;6.10;;
16669;SDS011;8448;52.034;5.158;2024-01-10T10:53:02;11.93;;;6.30;;
16669;SDS011;8448;52.034;5.158;2024-01-10T10:55:30;13.10;;;6.43;;
16669;SDS011;8448;52.034;5.158;2024-01-10T10:57:59;11.17;;;6.67;;
16669;SDS011;8448;52.034;5.158;2024-01-10T11:00:31;10.10;;;6.47;;
16669;SDS011;8448;52.034;5.158;2024-01-10T11:03:00;11.73;;;6.60;;
16669;SDS011;8448;52.034;5.158;2024-01-10T11:05:30;12.93;;;6.50;;
16669;SDS011;8448;52.034;5.158;2024-01-10T11:07:58;11.47;;;6.73;;
16669;SDS011;8448;52.034;5.158;2024-01-10T11:10:27;12.43;;;7.03;;
16669;SDS011;8448;52.034;5.158;2024-01-10T11:13:00;11.87;;;7.00;;
16669;SDS011;8448;52.034;5.158;2024-01-10T11:15:46;11.57;;;7.13;;
16669;SDS011;8448;52.034;5.158;2024-01-10T11:18:46;10.87;;;6.93;;
16669;SDS011;8448;52.034;5.158;2024-01-10T11:21:21;11.07;;;7.10;;
16669;SDS011;8448;52.034;5.158;2024-01-10T11:23:54;9.87;;;6.60;;
16669;SDS011;8448;52.034;5.158;2024-01-10T11:26:22;11.50;;;6.93;;
16669;SDS011;8448;52.034;5.158;2024-01-10T11:28:51;12.60;;;7.03;;
16669;SDS011;8448;52.034;5.158;2024-01-10T11:31:28;10.93;;;6.53;;
16669;SDS011;8448;52.034;5.158;2024-01-10T11:33:56;15.37;;;7.57;;
16669;SDS011;8448;52.034;5.158;2024-01-10T11:36:25;10.27;;;6.63;;
16669;SDS011;8448;52.034;5.158;2024-01-10T11:38:54;10.25;;;7.13;;
16669;SDS011;8448;52.034;5.158;2024-01-10T11:41:26;9.73;;;6.33;;
16669;SDS011;8448;52.034;5.158;2024-01-10T11:46:55;11.43;;;7.40;;
16669;SDS011;8448;52.034;5.158;2024-01-10T11:49:23;10.87;;;6.97;;
16669;SDS011;8448;52.034;5.158;2024-01-10T11:51:52;10.27;;;7.30;;
16669;SDS011;8448;52.034;5.158;2024-01-10T11:54:34;12.13;;;7.50;;
16669;SDS011;8448;52.034;5.158;2024-01-10T11:57:19;11.80;;;7.03;;
16669;SDS011;8448;52.034;5.158;2024-01-10T11:59:49;11.27;;;7.40;;
16669;SDS011;8448;52.034;5.158;2024-01-10T12:02:18;11.20;;;7.23;;
16669;SDS011;8448;52.034;5.158;2024-01-10T12:04:45;11.45;;;7.00;;
16669;SDS011;8448;52.034;5.158;2024-01-10T12:07:13;11.18;;;7.25;;
16669;SDS011;8448;52.034;5.158;2024-01-10T12:09:41;12.80;;;7.43;;
16669;SDS011;8448;52.034;5.158;2024-01-10T12:12:08;10.07;;;7.10;;
16669;SDS011;8448;52.034;5.158;2024-01-10T12:14:36;10.82;;;7.43;;
16669;SDS011;8448;52.034;5.158;2024-01-10T12:17:06;9.45;;;6.85;;
16669;SDS011;8448;52.034;5.158;2024-01-10T12:19:34;10.73;;;7.20;;
16669;SDS011;8448;52.034;5.158;2024-01-10T12:22:02;12.23;;;7.13;;
16669;SDS011;8448;52.034;5.158;2024-01-10T12:24:30;11.43;;;7.60;;
16669;SDS011;8448;52.034;5.158;2024-01-10T12:26:58;12.15;;;7.57;;
16669;SDS011;8448;52.034;5.158;2024-01-10T12:29:26;12.13;;;7.38;;
16669;SDS011;8448;52.034;5.158;2024-01-10T12:31:53;10.25;;;7.07;;
16669;SDS011;8448;52.034;5.158;2024-01-10T12:34:22;11.25;;;7.30;;
16669;SDS011;8448;52.034;5.158;2024-01-10T12:36:49;10.85;;;6.97;;
16669;SDS011;8448;52.034;5.158;2024-01-10T12:39:21;9.68;;;6.85;;
16669;SDS011;8448;52.034;5.158;2024-01-10T12:41:50;13.00;;;7.00;;
16669;SDS011;8448;52.034;5.158;2024-01-10T12:44:18;11.05;;;7.47;;
16669;SDS011;8448;52.034;5.158;2024-01-10T12:46:49;10.15;;;7.35;;
16669;SDS011;8448;52.034;5.158;2024-01-10T12:49:17;12.68;;;7.55;;
16669;SDS011;8448;52.034;5.158;2024-01-10T12:51:46;9.43;;;6.80;;
16669;SDS011;8448;52.034;5.158;2024-01-10T12:54:14;9.68;;;7.03;;
16669;SDS011;8448;52.034;5.158;2024-01-10T12:56:46;11.52;;;7.50;;
16669;SDS011;8448;52.034;5.158;2024-01-10T12:59:13;11.68;;;7.68;;
16669;SDS011;8448;52.034;5.158;2024-01-10T13:01:40;11.80;;;7.50;;
16669;SDS011;8448;52.034;5.158;2024-01-10T13:04:08;11.45;;;7.88;;
16669;SDS011;8448;52.034;5.158;2024-01-10T13:06:36;11.27;;;7.40;;
16669;SDS011;8448;52.034;5.158;2024-01-10T13:09:05;9.55;;;7.13;;
16669;SDS011;8448;52.034;5.158;2024-01-10T13:11:32;13.10;;;7.28;;
16669;SDS011;8448;52.034;5.158;2024-01-10T13:14:00;11.32;;;7.35;;
16669;SDS011;8448;52.034;5.158;2024-01-10T13:16:27;13.70;;;7.20;;
16669;SDS011;8448;52.034;5.158;2024-01-10T13:18:55;10.73;;;6.80;;
16669;SDS011;8448;52.034;5.158;2024-01-10T13:21:24;10.88;;;7.47;;
16669;SDS011;8448;52.034;5.158;2024-01-10T13:23:52;12.18;;;7.25;;
16669;SDS011;8448;52.034;5.158;2024-01-10T13:26:20;11.35;;;7.55;;
16669;SDS011;8448;52.034;5.158;2024-01-10T13:28:48;10.48;;;6.97;;
16669;SDS011;8448;52.034;5.158;2024-01-10T13:31:16;13.32;;;7.85;;
16669;SDS011;8448;52.034;5.158;2024-01-10T13:33:43;11.38;;;7.32;;
16669;SDS011;8448;52.034;5.158;2024-01-10T13:36:10;12.43;;;7.97;;
16669;SDS011;8448;52.034;5.158;2024-01-10T13:38:38;10.07;;;7.47;;
16669;SDS011;8448;52.034;5.158;2024-01-10T13:41:05;11.63;;;7.55;;
16669;SDS011;8448;52.034;5.158;2024-01-10T13:43:35;12.38;;;8.07;;
16669;SDS011;8448;52.034;5.158;2024-01-10T13:46:02;10.02;;;7.20;;
16669;SDS011;8448;52.034;5.158;2024-01-10T13:48:30;12.85;;;8.35;;
16669;SDS011;8448;52.034;5.158;2024-01-10T13:50:57;11.10;;;7.80;;
16669;SDS011;8448;52.034;5.158;2024-01-10T13:53:24;11.40;;;7.78;;
16669;SDS011;8448;52.034;5.158;2024-01-10T13:55:52;12.40;;;7.70;;
16669;SDS011;8448;52.034;5.158;2024-01-10T13:58:20;12.52;;;7.93;;
16669;SDS011;8448;52.034;5.158;2024-01-10T14:00:50;11.18;;;7.55;;
16669;SDS011;8448;52.034;5.158;2024-01-10T14:03:17;11.32;;;7.60;;
16669;SDS011;8448;52.034;5.158;2024-01-10T14:05:44;11.65;;;7.65;;
16669;SDS011;8448;52.034;5.158;2024-01-10T14:08:12;11.20;;;7.32;;
16669;SDS011;8448;52.034;5.158;2024-01-10T14:10:40;10.70;;;7.53;;
16669;SDS011;8448;52.034;5.158;2024-01-10T14:13:08;12.57;;;7.45;;
16669;SDS011;8448;52.034;5.158;2024-01-10T14:15:35;10.25;;;7.30;;
16669;SDS011;8448;52.034;5.158;2024-01-10T14:18:04;10.35;;;7.38;;
16669;SDS011;8448;52.034;5.158;2024-01-10T14:20:32;12.73;;;7.68;;
16669;SDS011;8448;52.034;5.158;2024-01-10T14:23:01;11.48;;;7.85;;
16669;SDS011;8448;52.034;5.158;2024-01-10T14:25:28;11.82;;;7.70;;
16669;SDS011;8448;52.034;5.158;2024-01-10T14:27:56;12.75;;;8.18;;
16669;SDS011;8448;52.034;5.158;2024-01-10T14:30:24;14.75;;;8.88;;
16669;SDS011;8448;52.034;5.158;2024-01-10T14:32:52;13.60;;;8.73;;
16669;SDS011;8448;52.034;5.158;2024-01-10T14:35:21;20.40;;;8.90;;
16669;SDS011;8448;52.034;5.158;2024-01-10T14:37:48;17.87;;;8.60;;
16669;SDS011;8448;52.034;5.158;2024-01-10T14:40:16;13.33;;;7.83;;
16669;SDS011;8448;52.034;5.158;2024-01-10T14:42:43;13.70;;;7.53;;
16669;SDS011;8448;52.034;5.158;2024-01-10T14:45:12;13.37;;;8.07;;
16669;SDS011;8448;52.034;5.158;2024-01-10T14:47:39;14.38;;;8.60;;
16669;SDS011;8448;52.034;5.158;2024-01-10T14:50:14;17.10;;;7.77;;
16669;SDS011;8448;52.034;5.158;2024-01-10T14:52:52;14.93;;;7.83;;
16669;SDS011;8448;52.034;5.158;2024-01-10T14:55:22;14.07;;;7.57;;
16669;SDS011;8448;52.034;5.158;2024-01-10T14:57:50;14.68;;;8.20;;
16669;SDS011;8448;52.034;5.158;2024-01-10T15:00:17;17.67;;;8.37;;
16669;SDS011;8448;52.034;5.158;2024-01-10T15:02:45;18.23;;;9.00;;
16669;SDS011;8448;52.034;5.158;2024-01-10T15:05:12;16.37;;;8.47;;